Time;durP1;ratioP1;P1;durP2;ratioP2;P2;SDS_P1;SDS_P2;PMS_P1;PMS_P2;Temp;Humidity;BMP_temperature;BMP_pressure;BME280_temperature;BME280_humidity;BME280_pressure;Samples;Min_cycle;Max_cycle;Signal;HPM_P1;HPM_P2
2021/11/07 00:00:12;;;;;;;8.93;3.50;;;2.50;99.90;;;;;;5112354;28;20031;-85
2021/11/07 00:05:07;;;;;;;29.17;3.90;;;2.50;99.90;;;;;;5092672;28;20028;-86
2021/11/07 00:07:48;;;;;;;27.60;4.17;;;2.50;99.90;;;;;;5111681;28;20112;-86
2021/11/07 00:10:21;;;;;;;16.42;3.67;;;2.50;99.90;;;;;;5110977;28;20042;-85
2021/11/07 00:12:49;;;;;;;43.53;4.87;;;2.60;99.90;;;;;;5112708;28;20164;-86
2021/11/07 00:15:17;;;;;;;29.73;4.20;;;2.60;99.90;;;;;;5085505;28;20113;-86
2021/11/07 00:17:49;;;;;;;17.20;4.10;;;2.70;99.90;;;;;;5085670;28;20038;-86
2021/11/07 00:20:29;;;;;;;;;;;2.70;99.90;;;;;;5093273;28;20062;-86
2021/11/07 00:25:29;;;;;;;32.97;4.13;;;2.70;99.90;;;;;;5109972;28;20024;-86
2021/11/07 00:27:59;;;;;;;38.50;3.38;;;2.60;99.90;;;;;;5113039;28;20103;-85
2021/11/07 00:33:25;;;;;;;36.70;4.73;;;2.50;99.90;;;;;;5098171;28;20081;-85
2021/11/07 00:36:05;;;;;;;24.88;4.15;;;2.30;99.90;;;;;;5074170;28;20036;-86
2021/11/07 00:38:40;;;;;;;28.13;4.67;;;2.40;99.90;;;;;;5092250;28;20135;-84
2021/11/07 00:41:21;;;;;;;12.00;4.13;;;2.40;99.90;;;;;;5092380;28;20042;-86
2021/11/07 00:46:27;;;;;;;28.23;4.00;;;2.20;99.90;;;;;;5104302;28;20016;-85
2021/11/07 00:48:59;;;;;;;19.17;4.27;;;2.20;99.90;;;;;;5093441;28;20039;-85
2021/11/07 00:54:11;;;;;;;15.17;3.40;;;2.00;99.90;;;;;;5096307;28;20012;-85
2021/11/07 00:57:02;;;;;;;57.93;5.47;;;2.10;99.90;;;;;;5106914;28;20507;-85
2021/11/07 01:02:15;;;;;;;11.43;3.50;;;2.00;99.90;;;;;;5115839;28;20027;-84
2021/11/07 01:04:45;;;;;;;8.77;3.90;;;2.00;99.90;;;;;;5117182;28;20098;-85
2021/11/07 01:07:10;;;;;;;21.33;3.90;;;1.90;99.90;;;;;;5104314;28;20024;-85
2021/11/07 01:09:36;;;;;;;27.33;3.37;;;1.80;99.90;;;;;;5103574;28;20043;-84
2021/11/07 01:12:02;;;;;;;10.37;3.60;;;1.70;99.90;;;;;;5116256;28;20098;-85
2021/11/07 01:14:28;;;;;;;17.13;4.03;;;1.80;99.90;;;;;;5115829;28;20059;-85
2021/11/07 01:16:54;;;;;;;12.63;3.93;;;1.90;99.90;;;;;;5117378;28;20024;-85
2021/11/07 01:19:19;;;;;;;32.43;4.43;;;1.90;99.90;;;;;;5117934;28;20541;-86
2021/11/07 01:21:46;;;;;;;8.87;3.40;;;2.00;99.90;;;;;;5116183;28;20110;-86
2021/11/07 01:24:27;;;;;;;9.17;4.07;;;2.00;99.90;;;;;;5115801;28;20032;-86
2021/11/07 01:27:05;;;;;;;8.93;3.90;;;2.10;99.90;;;;;;5116571;28;20058;-85
2021/11/07 01:29:36;;;;;;;10.13;3.77;;;2.10;99.90;;;;;;5098910;28;20027;-86
2021/11/07 01:32:02;;;;;;;8.67;3.63;;;2.30;99.90;;;;;;5093953;28;20028;-85
2021/11/07 01:37:05;;;;;;;14.07;3.73;;;2.20;99.90;;;;;;5095744;28;20526;-86
2021/11/07 01:44:42;;;;;;;9.57;3.73;;;2.30;99.90;;;;;;5099228;28;20016;-86
2021/11/07 01:47:08;;;;;;;8.57;3.40;;;2.40;99.90;;;;;;5081533;28;20051;-85
2021/11/07 01:49:40;;;;;;;8.37;3.50;;;2.30;99.90;;;;;;5107612;28;20111;-85
2021/11/07 01:52:08;;;;;;;7.05;3.25;;;2.30;99.90;;;;;;5109596;28;20085;-85
2021/11/07 01:54:48;;;;;;;9.07;3.30;;;2.30;99.90;;;;;;5097204;28;20575;-86
2021/11/07 01:57:23;;;;;;;9.57;4.13;;;2.30;99.90;;;;;;5104859;28;20129;-86
2021/11/07 01:59:53;;;;;;;7.67;3.30;;;2.40;99.90;;;;;;5092349;28;20301;-85
2021/11/07 02:02:20;;;;;;;7.97;3.70;;;2.50;99.90;;;;;;5095060;28;20032;-85
2021/11/07 02:04:46;;;;;;;7.97;3.13;;;2.60;99.90;;;;;;5096563;28;20027;-86
2021/11/07 02:07:13;;;;;;;6.87;3.10;;;2.60;99.90;;;;;;5115164;28;20123;-86
2021/11/07 02:09:39;;;;;;;8.43;3.20;;;2.60;99.90;;;;;;5096008;28;20396;-86
2021/11/07 02:12:07;;;;;;;11.43;4.20;;;2.60;99.90;;;;;;5115344;28;20077;-85
2021/11/07 02:14:33;;;;;;;11.10;4.20;;;2.70;99.90;;;;;;5092397;28;20060;-86
2021/11/07 02:17:01;;;;;;;10.30;4.13;;;2.50;99.90;;;;;;5094173;28;20069;-85
2021/11/07 02:19:31;;;;;;;11.00;4.63;;;2.60;99.90;;;;;;5076274;28;20442;-86
2021/11/07 02:21:59;;;;;;;11.57;4.53;;;2.40;99.90;;;;;;5094840;28;20117;-85
2021/11/07 02:24:25;;;;;;;8.30;3.53;;;2.40;99.90;;;;;;5098924;28;20538;-85
2021/11/07 02:26:59;;;;;;;8.87;3.87;;;2.30;99.90;;;;;;5081749;28;20046;-85
2021/11/07 02:29:26;;;;;;;10.73;4.13;;;2.30;99.90;;;;;;5081616;28;20464;-86
2021/11/07 02:31:56;;;;;;;9.40;3.43;;;2.30;99.90;;;;;;5096745;28;20034;-86
2021/11/07 02:34:31;;;;;;;13.17;4.27;;;2.40;99.90;;;;;;5095563;28;20065;-86
2021/11/07 02:37:01;;;;;;;24.60;4.47;;;2.40;99.90;;;;;;5096590;28;20031;-85
2021/11/07 02:39:27;;;;;;;35.97;4.93;;;2.40;99.90;;;;;;5098741;28;20176;-85
2021/11/07 02:41:53;;;;;;;44.70;5.67;;;2.30;99.90;;;;;;5108030;28;20124;-86
2021/11/07 02:44:46;;;;;;;22.00;4.60;;;2.40;99.90;;;;;;5108924;28;20492;-86
2021/11/07 02:47:14;;;;;;;;;;;2.30;99.90;;;;;;5083354;28;20093;-86
2021/11/07 02:49:41;;;;;;;23.27;3.87;;;2.40;99.90;;;;;;5099987;28;19908;-86
2021/11/07 02:52:10;;;;;;;12.23;3.90;;;2.30;99.90;;;;;;5098232;28;20038;-86
2021/11/07 02:54:36;;;;;;;33.03;5.17;;;2.40;99.90;;;;;;5096277;28;20042;-86
2021/11/07 02:57:06;;;;;;;15.57;5.33;;;2.40;99.90;;;;;;5105775;28;20032;-87
2021/11/07 02:59:34;;;;;;;8.83;4.13;;;2.40;99.90;;;;;;5102074;28;20100;-85
2021/11/07 03:02:02;;;;;;;11.40;4.77;;;2.50;99.90;;;;;;5114434;28;20028;-86
2021/11/07 03:04:28;;;;;;;11.27;5.17;;;2.50;99.90;;;;;;5094765;28;20024;-86
2021/11/07 03:06:54;;;;;;;12.73;5.07;;;2.50;99.90;;;;;;5076748;28;20035;-86
2021/11/07 03:09:23;;;;;;;8.93;4.17;;;2.50;99.90;;;;;;5075085;28;20036;-86
2021/11/07 03:11:53;;;;;;;10.53;4.23;;;2.50;99.90;;;;;;5112476;28;20063;-86
2021/11/07 03:14:24;;;;;;;9.73;4.80;;;2.50;99.90;;;;;;5114692;28;20032;-85
2021/11/07 03:16:50;;;;;;;12.40;4.85;;;2.60;99.90;;;;;;5096590;28;20050;-86
2021/11/07 03:19:20;;;;;;;10.23;4.50;;;2.60;99.90;;;;;;5091349;28;20123;-86
2021/11/07 03:21:46;;;;;;;10.77;4.17;;;2.60;99.90;;;;;;5092907;28;20024;-86
2021/11/07 03:24:14;;;;;;;9.83;4.37;;;2.60;99.90;;;;;;5075323;28;20031;-86
2021/11/07 03:26:40;;;;;;;10.67;4.43;;;2.60;99.90;;;;;;5094100;28;20392;-85
2021/11/07 03:29:08;;;;;;;9.30;4.37;;;2.50;99.90;;;;;;5113487;28;20368;-85
2021/11/07 03:31:49;;;;;;;7.10;3.63;;;2.50;99.90;;;;;;5093985;28;20114;-86
2021/11/07 03:34:28;;;;;;;7.97;3.90;;;2.40;99.90;;;;;;5094923;28;20043;-85
2021/11/07 03:36:57;;;;;;;8.57;3.80;;;2.40;99.90;;;;;;5091056;28;20027;-85
2021/11/07 03:39:25;;;;;;;8.40;4.37;;;2.40;99.90;;;;;;5092935;28;20017;-85
2021/11/07 03:41:51;;;;;;;10.23;4.37;;;2.40;99.90;;;;;;5092238;28;20107;-86
2021/11/07 03:44:18;;;;;;;9.27;4.33;;;2.40;99.90;;;;;;5075830;28;20055;-85
2021/11/07 03:46:47;;;;;;;7.60;3.60;;;2.40;99.90;;;;;;5091100;28;20023;-86
2021/11/07 03:49:12;;;;;;;11.50;4.27;;;2.30;99.90;;;;;;5113251;28;20047;-85
2021/11/07 03:51:39;;;;;;;10.37;4.60;;;2.30;99.90;;;;;;5112712;28;20447;-85
2021/11/07 03:54:06;;;;;;;7.57;3.63;;;2.30;99.90;;;;;;5107009;28;20016;-85
2021/11/07 03:56:32;;;;;;;8.93;4.03;;;2.30;99.90;;;;;;5093507;28;20025;-85
2021/11/07 03:58:58;;;;;;;10.27;3.90;;;2.30;99.90;;;;;;5093007;28;20059;-85
2021/11/07 04:01:24;;;;;;;8.63;3.77;;;2.40;99.90;;;;;;5073110;28;20039;-85
2021/11/07 04:03:50;;;;;;;10.23;3.40;;;2.40;99.90;;;;;;5093588;28;20032;-85
2021/11/07 04:06:17;;;;;;;7.87;3.60;;;2.40;99.90;;;;;;5094065;28;20024;-85
2021/11/07 04:08:43;;;;;;;8.70;3.20;;;2.40;99.90;;;;;;5105114;28;20032;-85
2021/11/07 04:11:10;;;;;;;7.53;3.93;;;2.40;99.90;;;;;;5093117;22;20048;-86
2021/11/07 04:13:39;;;;;;;8.03;3.33;;;2.40;99.90;;;;;;5087445;28;20442;-87
2021/11/07 04:16:06;;;;;;;8.13;4.13;;;2.40;99.90;;;;;;5095541;28;20024;-86
2021/11/07 04:18:32;;;;;;;10.37;4.43;;;2.40;99.90;;;;;;5093979;28;20054;-86
2021/11/07 04:20:58;;;;;;;7.83;3.73;;;2.40;99.90;;;;;;5078746;28;20028;-87
2021/11/07 04:23:23;;;;;;;8.13;3.53;;;2.40;99.90;;;;;;5097797;28;20028;-86
2021/11/07 04:25:49;;;;;;;11.57;4.60;;;2.40;99.90;;;;;;5072283;28;20039;-86
2021/11/07 04:28:15;;;;;;;12.27;4.30;;;2.30;99.90;;;;;;5059225;28;20025;-86
2021/11/07 04:30:40;;;;;;;10.17;4.90;;;2.30;99.90;;;;;;5067323;28;20029;-86
2021/11/07 04:33:06;;;;;;;11.37;4.30;;;2.40;99.90;;;;;;5057210;28;20056;-86
2021/11/07 04:35:32;;;;;;;9.17;4.13;;;2.40;99.90;;;;;;5062732;28;20444;-86
2021/11/07 04:37:58;;;;;;;11.43;4.63;;;2.30;99.90;;;;;;5040942;28;20488;-86
2021/11/07 04:40:25;;;;;;;8.80;3.77;;;2.30;99.90;;;;;;5040920;28;20025;-86
2021/11/07 04:42:51;;;;;;;9.87;4.50;;;2.40;99.90;;;;;;5050944;28;20116;-86
2021/11/07 04:45:17;;;;;;;8.67;4.27;;;2.30;99.90;;;;;;5055277;28;20044;-86
2021/11/07 04:47:43;;;;;;;8.93;4.47;;;2.30;99.90;;;;;;5062884;28;20032;-86
2021/11/07 04:50:11;;;;;;;8.37;3.87;;;2.30;99.90;;;;;;5047747;28;20035;-86
2021/11/07 04:52:37;;;;;;;9.67;4.77;;;2.30;99.90;;;;;;5065607;28;20059;-86
2021/11/07 04:55:03;;;;;;;10.27;3.67;;;2.30;99.90;;;;;;5042923;28;20025;-86
2021/11/07 04:57:29;;;;;;;9.87;4.20;;;2.30;99.90;;;;;;5058307;28;20148;-86
2021/11/07 04:59:55;;;;;;;9.47;4.30;;;2.30;99.90;;;;;;5039965;28;20462;-87
2021/11/07 05:02:21;;;;;;;9.37;4.57;;;2.30;99.90;;;;;;5056633;28;20065;-86
2021/11/07 05:04:48;;;;;;;8.93;3.90;;;2.30;99.90;;;;;;5070026;28;20036;-86
2021/11/07 05:07:14;;;;;;;9.60;4.37;;;2.40;99.90;;;;;;5058958;28;20082;-86
2021/11/07 05:09:40;;;;;;;12.27;4.87;;;2.40;99.90;;;;;;5077164;28;20036;-86
2021/11/07 05:12:09;;;;;;;9.53;4.63;;;2.30;99.90;;;;;;5058999;28;20032;-86
2021/11/07 05:14:35;;;;;;;11.67;4.37;;;2.30;99.90;;;;;;5058903;28;20119;-86
2021/11/07 05:17:00;;;;;;;8.00;3.57;;;2.30;99.90;;;;;;5076600;28;20059;-85
2021/11/07 05:19:26;;;;;;;10.27;4.60;;;2.40;99.90;;;;;;5067331;28;20112;-87
2021/11/07 05:21:52;;;;;;;11.40;5.00;;;2.40;99.90;;;;;;5055771;28;20408;-86
2021/11/07 05:24:17;;;;;;;10.23;4.13;;;2.40;99.90;;;;;;5057759;28;20505;-86
2021/11/07 05:26:43;;;;;;;10.23;4.27;;;2.40;99.90;;;;;;5038467;28;20063;-86
2021/11/07 05:29:09;;;;;;;8.83;4.07;;;2.40;99.90;;;;;;5039450;28;20122;-86
2021/11/07 05:31:36;;;;;;;13.03;4.87;;;2.40;99.90;;;;;;5038013;28;20079;-87
2021/11/07 05:34:02;;;;;;;12.77;4.97;;;2.30;99.90;;;;;;5058011;28;20119;-86
2021/11/07 05:36:28;;;;;;;9.37;4.30;;;2.30;99.90;;;;;;5054776;28;20393;-86
2021/11/07 05:38:55;;;;;;;9.27;4.57;;;2.30;99.90;;;;;;5053362;28;20028;-86
2021/11/07 05:41:20;;;;;;;8.60;3.90;;;2.30;99.90;;;;;;5052429;28;20155;-86
2021/11/07 05:43:46;;;;;;;11.20;4.77;;;2.30;99.90;;;;;;5040658;28;20511;-87
2021/11/07 05:46:13;;;;;;;10.87;4.67;;;2.20;99.90;;;;;;5043314;28;20773;-85
2021/11/07 05:48:39;;;;;;;10.40;4.10;;;2.20;99.90;;;;;;5073608;28;20493;-86
2021/11/07 05:51:06;;;;;;;10.47;5.03;;;2.20;99.90;;;;;;5067359;28;20032;-86
2021/11/07 05:53:33;;;;;;;11.97;4.40;;;2.20;99.90;;;;;;5052187;28;20130;-86
2021/11/07 05:55:59;;;;;;;13.27;4.77;;;2.10;99.90;;;;;;5035057;28;20095;-86
2021/11/07 05:58:24;;;;;;;10.13;4.63;;;2.10;99.90;;;;;;5051273;28;20032;-86
2021/11/07 06:00:50;;;;;;;9.37;4.60;;;2.00;99.90;;;;;;5052595;28;20104;-86
2021/11/07 06:03:16;;;;;;;12.03;3.70;;;1.90;99.90;;;;;;5052888;28;20028;-86
2021/11/07 06:05:42;;;;;;;12.53;4.30;;;1.90;99.90;;;;;;5051593;28;20025;-86
2021/11/07 06:08:08;;;;;;;10.60;3.57;;;1.80;99.90;;;;;;5042890;28;20489;-87
2021/11/07 06:10:33;;;;;;;11.93;4.77;;;1.80;99.90;;;;;;5051490;28;20045;-87
2021/11/07 06:12:59;;;;;;;12.30;5.37;;;1.80;99.90;;;;;;5034499;28;20116;-87
2021/11/07 06:15:25;;;;;;;10.27;4.40;;;1.80;99.90;;;;;;5034687;28;20025;-87
2021/11/07 06:17:50;;;;;;;8.73;4.03;;;1.70;99.90;;;;;;5043732;28;20028;-87
2021/11/07 06:20:16;;;;;;;10.67;4.17;;;1.70;99.90;;;;;;5050331;28;20025;-86
2021/11/07 06:22:42;;;;;;;10.80;4.23;;;1.60;99.90;;;;;;5054783;28;20040;-86
2021/11/07 06:25:07;;;;;;;11.60;4.50;;;1.60;99.90;;;;;;5054841;28;20027;-87
2021/11/07 06:27:35;;;;;;;12.00;4.60;;;1.60;99.90;;;;;;5051527;28;20025;-87
2021/11/07 06:30:04;;;;;;;14.03;4.80;;;1.60;99.90;;;;;;5033638;28;20025;-86
2021/11/07 06:32:29;;;;;;;13.30;5.17;;;1.70;99.90;;;;;;5052468;28;20061;-86
2021/11/07 06:34:55;;;;;;;12.13;5.30;;;1.60;99.90;;;;;;5034682;28;20033;-86
2021/11/07 06:37:21;;;;;;;12.93;4.63;;;1.70;99.90;;;;;;5052980;28;20048;-86
2021/11/07 06:39:47;;;;;;;8.07;3.60;;;1.70;99.90;;;;;;5051837;28;20106;-86
2021/11/07 06:42:12;;;;;;;7.83;3.43;;;1.70;99.90;;;;;;5034244;28;20029;-86
2021/11/07 06:44:38;;;;;;;12.93;5.37;;;1.70;99.90;;;;;;5043891;28;20032;-86
2021/11/07 06:47:06;;;;;;;12.10;4.30;;;1.70;99.90;;;;;;5067385;28;20177;-86
2021/11/07 06:49:31;;;;;;;14.80;5.20;;;1.80;99.90;;;;;;5053517;28;20059;-87
2021/11/07 06:51:57;;;;;;;11.47;5.00;;;1.80;99.90;;;;;;5050803;28;20079;-86
2021/11/07 06:54:25;;;;;;;13.43;5.33;;;1.90;99.90;;;;;;5051909;28;20460;-87
2021/11/07 06:56:50;;;;;;;14.37;5.00;;;1.90;99.90;;;;;;5033814;28;20025;-87
2021/11/07 06:59:16;;;;;;;13.30;4.80;;;1.90;99.90;;;;;;5034781;28;20740;-87
2021/11/07 07:01:42;;;;;;;11.83;4.77;;;2.00;99.90;;;;;;5033200;28;20033;-86
2021/11/07 07:04:07;;;;;;;17.40;5.43;;;2.10;99.90;;;;;;5051843;28;20029;-86
2021/11/07 07:06:34;;;;;;;13.37;5.67;;;2.10;99.90;;;;;;5033873;28;20094;-87
2021/11/07 07:09:11;;;;;;;12.70;4.93;;;2.20;99.90;;;;;;5050919;28;20474;-87
2021/11/07 07:11:44;;;;;;;11.90;5.50;;;2.20;99.90;;;;;;5050840;28;20124;-87
2021/11/07 07:14:19;;;;;;;11.07;5.00;;;2.30;99.90;;;;;;5034351;28;20025;-87
2021/11/07 07:17:02;;;;;;;8.20;3.73;;;2.30;99.90;;;;;;5033519;28;20021;-87
2021/11/07 07:30:26;;;;;;;13.87;5.27;;;2.60;99.90;;;;;;5050252;28;20032;-87
2021/11/07 07:35:36;;;;;;;14.30;5.73;;;2.70;99.90;;;;;;5060017;28;20036;-86
2021/11/07 07:38:01;;;;;;;10.77;4.93;;;2.70;99.90;;;;;;5047063;28;20024;-88
2021/11/07 07:40:27;;;;;;;13.03;5.47;;;2.70;99.90;;;;;;5051857;28;20141;-85
2021/11/07 07:42:52;;;;;;;11.60;4.73;;;2.80;99.90;;;;;;5049878;28;20469;-85
2021/11/07 07:45:18;;;;;;;11.10;5.20;;;2.90;99.90;;;;;;5051291;28;20029;-86
2021/11/07 07:47:44;;;;;;;11.93;5.33;;;2.90;99.90;;;;;;5052803;28;20025;-85
2021/11/07 07:50:15;;;;;;;12.90;5.77;;;3.00;99.90;;;;;;5060416;28;20463;-87
2021/11/07 07:52:42;;;;;;;17.47;5.63;;;3.10;99.90;;;;;;5066759;28;20423;-88
2021/11/07 07:55:09;;;;;;;16.97;5.90;;;3.30;99.90;;;;;;5053858;28;20062;-88
2021/11/07 07:57:37;;;;;;;15.70;6.17;;;3.40;99.90;;;;;;5053241;28;20094;-88
2021/11/07 08:00:11;;;;;;;15.93;5.87;;;3.60;99.90;;;;;;5071951;28;20029;-88
2021/11/07 08:02:36;;;;;;;14.40;5.20;;;3.80;99.90;;;;;;5071579;28;20044;-88
2021/11/07 08:05:02;;;;;;;13.67;5.30;;;3.90;99.90;;;;;;5072653;28;20029;-88
2021/11/07 08:07:30;;;;;;;12.47;5.07;;;3.90;99.90;;;;;;5073116;28;20447;-88
2021/11/07 08:09:56;;;;;;;13.00;5.87;;;4.00;99.90;;;;;;5049251;28;20634;-89
2021/11/07 08:12:22;;;;;;;14.23;5.00;;;4.00;99.90;;;;;;5054777;28;20036;-88
2021/11/07 08:14:51;;;;;;;10.90;4.90;;;3.90;99.90;;;;;;5045854;28;20086;-88
2021/11/07 08:17:16;;;;;;;12.33;4.83;;;3.90;99.90;;;;;;5054786;28;20028;-88
2021/11/07 08:19:42;;;;;;;11.40;3.57;;;3.90;99.90;;;;;;5071803;28;20032;-88
2021/11/07 08:22:08;;;;;;;13.23;5.17;;;3.80;99.90;;;;;;5068511;28;20068;-88
2021/11/07 08:24:35;;;;;;;13.53;5.13;;;3.90;99.90;;;;;;5048977;28;20033;-89
2021/11/07 08:27:03;;;;;;;12.40;5.13;;;3.80;99.90;;;;;;5058071;28;20036;-86
2021/11/07 08:29:29;;;;;;;11.17;4.90;;;3.80;99.90;;;;;;5071738;28;20023;-87
2021/11/07 08:31:56;;;;;;;14.10;4.40;;;3.90;99.90;;;;;;5050933;28;20498;-86
2021/11/07 08:34:26;;;;;;;9.77;4.73;;;4.00;99.90;;;;;;5035395;28;20115;-86
2021/11/07 08:39:25;;;;;;;9.93;4.77;;;4.00;99.90;;;;;;5061882;28;20116;-86
2021/11/07 08:41:59;;;;;;;13.70;5.07;;;4.00;99.90;;;;;;5065617;28;20424;-86
2021/11/07 09:01:07;;;;;;;10.77;3.93;;;4.20;99.90;;;;;;5072627;28;20050;-87
2021/11/07 09:09:14;;;;;;;11.73;4.23;;;4.40;99.90;;;;;;5077004;28;20494;-87
2021/11/07 09:11:49;;;;;;;9.20;4.30;;;4.30;99.90;;;;;;5068480;28;20032;-86
2021/11/07 09:14:18;;;;;;;10.30;3.90;;;4.40;99.90;;;;;;5076365;28;20029;-87
2021/11/07 09:16:45;;;;;;;10.23;3.73;;;4.40;99.90;;;;;;5056422;28;20021;-87
2021/11/07 09:19:13;;;;;;;8.93;3.63;;;4.50;99.90;;;;;;5074167;28;20499;-86
2021/11/07 09:21:43;;;;;;;9.30;4.40;;;4.60;99.90;;;;;;5065490;28;20017;-87
2021/11/07 09:24:22;;;;;;;7.47;3.63;;;4.70;99.90;;;;;;5072411;28;20018;-84
2021/11/07 09:26:48;;;;;;;8.77;3.50;;;4.80;99.90;;;;;;5048825;28;20025;-87
2021/11/07 09:29:25;;;;;;;8.30;3.47;;;4.90;99.90;;;;;;5051240;28;20025;-86
2021/11/07 09:32:08;;;;;;;7.70;3.17;;;5.10;99.90;;;;;;5072281;28;20076;-86
2021/11/07 09:37:22;;;;;;;7.73;3.07;;;5.60;99.90;;;;;;5069152;28;20054;-87
2021/11/07 09:39:55;;;;;;;4.07;2.07;;;5.80;99.90;;;;;;5057195;28;20033;-88
2021/11/07 09:44:51;;;;;;;6.13;2.43;;;6.10;99.90;;;;;;5079133;28;20021;-87
2021/11/07 09:47:17;;;;;;;8.33;2.93;;;6.20;99.90;;;;;;5060348;28;20036;-88
2021/11/07 09:49:47;;;;;;;5.80;2.33;;;6.20;99.90;;;;;;5055231;28;20044;-86
2021/11/07 09:52:21;;;;;;;9.27;3.03;;;6.30;99.90;;;;;;5053015;28;20020;-86
2021/11/07 09:54:51;;;;;;;5.40;2.37;;;6.50;99.90;;;;;;5052570;28;20020;-85
2021/11/07 09:57:22;;;;;;;5.30;1.67;;;6.50;99.90;;;;;;5054900;28;20044;-88
2021/11/07 10:00:00;;;;;;;5.13;2.17;;;6.50;99.90;;;;;;5053730;28;20485;-89
2021/11/07 10:02:28;;;;;;;5.30;2.03;;;6.70;99.90;;;;;;5075280;28;20055;-87
2021/11/07 10:04:56;;;;;;;6.20;2.30;;;6.80;99.90;;;;;;5071629;28;20012;-88
2021/11/07 10:07:28;;;;;;;4.73;1.90;;;6.90;99.90;;;;;;5057500;28;20032;-88
2021/11/07 10:09:58;;;;;;;4.78;1.58;;;7.00;99.90;;;;;;5073492;28;20032;-88
2021/11/07 10:12:39;;;;;;;4.47;1.60;;;7.10;99.90;;;;;;5056860;28;20048;-87
2021/11/07 10:15:39;;;;;;;4.53;1.87;;;7.10;99.90;;;;;;5070819;28;20024;-90
2021/11/07 10:21:45;;;;;;;5.03;2.10;;;7.00;99.90;;;;;;5063500;28;20025;-89
2021/11/07 10:24:39;;;;;;;3.50;1.50;;;7.10;99.90;;;;;;5058526;28;20574;-91
2021/11/07 10:27:13;;;;;;;4.23;1.60;;;7.20;99.90;;;;;;5053598;28;20045;-88
2021/11/07 10:29:50;;;;;;;3.97;1.43;;;7.30;99.90;;;;;;5037467;28;20035;-87
2021/11/07 10:32:25;;;;;;;3.23;1.40;;;7.40;99.90;;;;;;5048647;28;20539;-87
2021/11/07 10:40:48;;;;;;;3.47;1.30;;;7.50;99.90;;;;;;5053141;28;20021;-89
2021/11/07 10:43:43;;;;;;;3.40;1.43;;;7.60;99.90;;;;;;5039217;28;20409;-89
2021/11/07 10:46:42;;;;;;;4.53;1.83;;;7.60;99.90;;;;;;5053918;28;20408;-88
2021/11/07 10:52:25;;;;;;;2.97;1.47;;;7.80;99.90;;;;;;5063597;28;20116;-88
2021/11/07 10:54:52;;;;;;;3.93;1.70;;;7.90;99.90;;;;;;5064819;28;20025;-88
2021/11/07 10:57:27;;;;;;;3.87;1.53;;;7.90;99.90;;;;;;5069287;28;20025;-89
2021/11/07 11:00:30;;;;;;;3.10;1.40;;;7.90;99.90;;;;;;5049255;28;20017;-88
2021/11/07 11:02:59;;;;;;;4.03;1.37;;;8.00;99.90;;;;;;5050581;28;20028;-88
2021/11/07 11:05:44;;;;;;;3.50;1.10;;;8.10;99.90;;;;;;5047603;28;20021;-89
2021/11/07 11:08:22;;;;;;;2.60;1.30;;;8.30;99.90;;;;;;5066022;28;20024;-89
2021/11/07 11:11:01;;;;;;;2.90;1.30;;;8.40;99.90;;;;;;5046417;28;20033;-89
2021/11/07 11:19:48;;;;;;;3.23;1.10;;;8.80;99.90;;;;;;5068461;28;20493;-91
2021/11/07 11:22:47;;;;;;;2.90;0.90;;;9.00;99.90;;;;;;5043748;28;20028;-91
2021/11/07 11:29:00;;;;;;;4.77;1.83;;;9.20;99.90;;;;;;5074905;28;20108;-89
2021/11/07 11:31:08;;;;;;;6.03;1.83;;;9.30;99.90;;;;;;5045583;28;20067;-91
2021/11/07 11:33:56;;;;;;;1.63;0.63;;;9.50;99.90;;;;;;5045627;28;20085;-91
2021/11/07 11:36:44;;;;;;;2.53;0.82;;;9.50;99.90;;;;;;5047302;28;20043;-90
2021/11/07 11:39:20;;;;;;;3.60;1.00;;;9.50;99.90;;;;;;5065471;28;20512;-90
2021/11/07 11:41:57;;;;;;;3.17;0.60;;;9.60;99.90;;;;;;5068434;28;20024;-90
2021/11/07 11:44:24;;;;;;;1.90;0.53;;;9.60;99.90;;;;;;5044262;28;20028;-91
2021/11/07 11:47:32;;;;;;;0.70;0.25;;;9.60;99.90;;;;;;5056852;28;20017;-91
2021/11/07 11:50:15;;;;;;;0.70;0.20;;;9.60;99.90;;;;;;5072069;28;20036;-89
2021/11/07 11:55:37;;;;;;;0.60;0.20;;;9.70;99.90;;;;;;5061579;28;20024;-90
2021/11/07 11:58:21;;;;;;;0.88;0.30;;;9.70;99.90;;;;;;5052887;28;20017;-89
2021/11/07 12:09:43;;;;;;;0.70;0.20;;;10.10;99.90;;;;;;5012183;28;20033;-90
2021/11/07 12:12:19;;;;;;;0.50;0.20;;;10.20;99.90;;;;;;5060970;28;20029;-89
2021/11/07 12:17:39;;;;;;;0.43;0.10;;;10.20;99.90;;;;;;5061405;28;20021;-91
2021/11/07 12:20:24;;;;;;;;;;;10.20;99.90;;;;;;5059883;28;20107;-90
2021/11/07 12:22:51;;;;;;;0.75;0.10;;;10.10;99.90;;;;;;5041805;28;19915;-90
2021/11/07 12:25:18;;;;;;;0.70;0.15;;;10.10;99.90;;;;;;5047768;28;20060;-90
2021/11/07 12:27:55;;;;;;;1.02;0.20;;;10.10;99.90;;;;;;5060112;28;20035;-89
2021/11/07 12:30:31;;;;;;;0.60;0.17;;;10.00;99.90;;;;;;5066075;28;20676;-89
2021/11/07 12:33:20;;;;;;;0.98;0.30;;;10.10;99.90;;;;;;5068524;28;20166;-89
2021/11/07 12:36:13;;;;;;;0.77;0.20;;;10.10;99.90;;;;;;5050152;28;20021;-90
2021/11/07 12:41:42;;;;;;;1.38;0.20;;;10.60;99.90;;;;;;5073015;28;20027;-89
2021/11/07 12:44:25;;;;;;;0.52;0.20;;;10.80;99.90;;;;;;5055183;28;20025;-86
2021/11/07 12:47:04;;;;;;;1.38;0.30;;;11.00;99.90;;;;;;5064392;28;20112;-88
2021/11/07 12:49:31;;;;;;;0.30;0.10;;;11.00;99.90;;;;;;5051839;28;20021;-88
2021/11/07 12:52:09;;;;;;;0.32;0.13;;;11.00;99.90;;;;;;5054651;28;20047;-88
2021/11/07 12:54:41;;;;;;;1.02;0.28;;;10.80;99.90;;;;;;5054744;28;20464;-88
2021/11/07 12:57:18;;;;;;;0.55;0.30;;;10.70;99.90;;;;;;5072487;28;20032;-87
2021/11/07 12:59:59;;;;;;;0.20;0.10;;;10.80;99.90;;;;;;5069462;28;20029;-87
2021/11/07 13:02:30;;;;;;;0.85;0.10;;;10.80;99.90;;;;;;5043368;28;20024;-88
2021/11/07 13:05:22;;;;;;;0.20;0.10;;;10.70;99.90;;;;;;5063940;28;20024;-88
2021/11/07 13:10:47;;;;;;;1.08;0.17;;;10.70;99.90;;;;;;5069777;28;20029;-88
2021/11/07 13:13:29;;;;;;;0.80;0.10;;;10.70;99.90;;;;;;5072729;28;20020;-88
2021/11/07 13:21:42;;;;;;;0.70;0.20;;;10.80;99.90;;;;;;5071977;28;20056;-87
2021/11/07 13:27:11;;;;;;;0.45;0.10;;;11.10;99.90;;;;;;5068755;28;20519;-87
2021/11/07 13:29:48;;;;;;;0.52;0.10;;;11.20;99.90;;;;;;5071129;28;20029;-86
2021/11/07 13:32:36;;;;;;;0.35;0.10;;;11.30;99.90;;;;;;5063416;28;20099;-86
2021/11/07 13:35:09;;;;;;;0.80;0.10;;;11.20;99.90;;;;;;5051655;28;20087;-88
2021/11/07 13:38:14;;;;;;;0.30;0.10;;;11.10;99.90;;;;;;5046773;28;20033;-89
2021/11/07 13:40:41;;;;;;;0.68;0.10;;;11.00;99.90;;;;;;4994583;28;20541;-88
2021/11/07 13:43:16;;;;;;;0.20;0.10;;;11.10;99.90;;;;;;5057687;28;20082;-88
2021/11/07 13:45:45;;;;;;;0.08;0.00;;;11.00;99.90;;;;;;5069999;28;20120;-89
2021/11/07 13:48:24;;;;;;;0.00;0.00;;;10.90;99.90;;;;;;5047940;28;20036;-88
2021/11/07 13:50:55;;;;;;;0.65;0.10;;;10.80;99.90;;;;;;5053173;28;20169;-89
2021/11/07 13:53:24;;;;;;;0.25;0.05;;;10.80;99.90;;;;;;5069470;28;20033;-88
2021/11/07 13:55:55;;;;;;;0.25;0.05;;;10.70;99.90;;;;;;5054996;28;20036;-89
2021/11/07 13:58:28;;;;;;;1.02;0.10;;;10.70;99.90;;;;;;5054576;28;20028;-89
2021/11/07 14:00:57;;;;;;;0.15;0.10;;;10.60;99.90;;;;;;5053523;28;20137;-89
2021/11/07 14:03:23;;;;;;;0.93;0.20;;;10.50;99.90;;;;;;5070475;28;20252;-89
2021/11/07 14:05:49;;;;;;;0.70;0.10;;;10.40;99.90;;;;;;5070636;28;20025;-88
2021/11/07 14:08:15;;;;;;;0.52;0.15;;;10.30;99.90;;;;;;5047579;28;20061;-88
2021/11/07 14:10:41;;;;;;;0.20;0.10;;;10.20;99.90;;;;;;5050291;28;20029;-88
2021/11/07 14:13:13;;;;;;;0.32;0.10;;;10.10;99.90;;;;;;5064294;28;20036;-89
2021/11/07 14:15:47;;;;;;;0.82;0.10;;;10.10;99.90;;;;;;5057252;28;20070;-88
2021/11/07 14:18:28;;;;;;;0.75;0.30;;;10.00;99.90;;;;;;5040567;28;20409;-88
2021/11/07 14:21:04;;;;;;;0.50;0.20;;;10.00;99.90;;;;;;5053911;28;20025;-88
2021/11/07 14:29:31;;;;;;;0.10;0.05;;;9.80;99.90;;;;;;5060836;28;20021;-88
2021/11/07 14:32:12;;;;;;;0.43;0.10;;;9.70;99.90;;;;;;5056483;28;20529;-89
2021/11/07 14:37:28;;;;;;;1.38;0.30;;;9.60;99.90;;;;;;5064673;28;20017;-87
2021/11/07 14:40:03;;;;;;;0.95;0.30;;;9.50;99.90;;;;;;5071809;28;20163;-89
2021/11/07 14:59:56;;;;;;;0.40;0.10;;;9.40;99.90;;;;;;5059496;28;20365;-89
2021/11/07 15:04:55;;;;;;;0.85;0.20;;;9.30;99.90;;;;;;5053217;28;20108;-89
2021/11/07 15:07:48;;;;;;;0.67;0.17;;;9.20;99.90;;;;;;5043916;28;20462;-89
2021/11/07 15:15:59;;;;;;;0.60;0.10;;;9.00;99.90;;;;;;5065438;28;20112;-88
2021/11/07 15:18:38;;;;;;;0.43;0.20;;;8.90;99.90;;;;;;5044377;28;20028;-89
2021/11/07 15:21:26;;;;;;;2.47;1.20;;;8.80;99.90;;;;;;5047662;28;20119;-88
2021/11/07 15:23:58;;;;;;;1.70;0.47;;;8.80;99.90;;;;;;5052077;28;20025;-89
2021/11/07 15:26:32;;;;;;;0.30;0.10;;;8.70;99.90;;;;;;5033924;28;20559;-89
2021/11/07 15:29:17;;;;;;;0.80;0.30;;;8.60;99.90;;;;;;5053070;28;20436;-89
2021/11/07 15:31:43;;;;;;;0.37;0.10;;;8.50;99.90;;;;;;5033820;28;20502;-89
2021/11/07 15:34:25;;;;;;;0.80;0.10;;;8.40;99.90;;;;;;5060978;28;20021;-88
2021/11/07 15:36:50;;;;;;;0.85;0.35;;;8.30;99.90;;;;;;5053398;28;20039;-88
2021/11/07 15:39:27;;;;;;;1.03;0.20;;;8.30;99.90;;;;;;5060787;28;20020;-88
2021/11/07 15:42:03;;;;;;;0.37;0.20;;;8.20;99.90;;;;;;5048352;28;20025;-89
2021/11/07 15:44:41;;;;;;;2.93;0.50;;;8.10;99.90;;;;;;5071815;28;20047;-89